sensor_id;sensor_type;location;lat;lon;timestamp;pressure;altitude;pressure_sealevel;temperature;humidity
73501;BME280;61721;42.206;25.320;2023-02-21T00:02:42;99976.31;;;7.66;51.83
73501;BME280;61721;42.206;25.320;2023-02-21T00:05:52;99974.34;;;7.68;50.90
73501;BME280;61721;42.206;25.320;2023-02-21T00:08:37;99979.63;;;7.46;51.79
73501;BME280;61721;42.206;25.320;2023-02-21T00:11:49;99964.13;;;7.97;51.02
73501;BME280;61721;42.206;25.320;2023-02-21T00:14:36;99960.66;;;8.30;50.18
73501;BME280;61721;42.206;25.320;2023-02-21T00:17:20;99963.50;;;8.83;48.56
73501;BME280;61721;42.206;25.320;2023-02-21T00:20:31;99967.69;;;8.42;49.95
73501;BME280;61721;42.206;25.320;2023-02-21T00:23:41;99957.78;;;8.98;48.48
73501;BME280;61721;42.206;25.320;2023-02-21T00:26:25;99961.81;;;8.82;48.25
73501;BME280;61721;42.206;25.320;2023-02-21T00:29:35;99963.66;;;8.70;48.65
73501;BME280;61721;42.206;25.320;2023-02-21T00:32:45;99948.66;;;8.36;49.95
73501;BME280;61721;42.206;25.320;2023-02-21T00:35:55;99942.69;;;8.43;49.60
73501;BME280;61721;42.206;25.320;2023-02-21T00:39:06;99916.47;;;8.71;49.12
73501;BME280;61721;42.206;25.320;2023-02-21T00:41:50;99916.06;;;9.18;48.41
73501;BME280;61721;42.206;25.320;2023-02-21T00:45:01;99913.69;;;9.04;48.56
73501;BME280;61721;42.206;25.320;2023-02-21T00:48:10;99911.72;;;8.74;49.41
73501;BME280;61721;42.206;25.320;2023-02-21T00:51:20;99904.44;;;8.76;49.23
73501;BME280;61721;42.206;25.320;2023-02-21T00:54:05;99926.69;;;8.10;50.61
73501;BME280;61721;42.206;25.320;2023-02-21T00:57:16;99923.44;;;7.38;51.89
73501;BME280;61721;42.206;25.320;2023-02-21T01:00:07;99917.94;;;6.94;54.06
73501;BME280;61721;42.206;25.320;2023-02-21T01:02:53;99920.34;;;6.85;53.37
73501;BME280;61721;42.206;25.320;2023-02-21T01:06:08;99908.88;;;7.77;51.18
73501;BME280;61721;42.206;25.320;2023-02-21T01:09:19;99910.94;;;7.85;50.71
73501;BME280;61721;42.206;25.320;2023-02-21T01:12:30;99907.84;;;7.10;52.70
73501;BME280;61721;42.206;25.320;2023-02-21T01:15:43;99909.56;;;6.63;53.96
73501;BME280;61721;42.206;25.320;2023-02-21T01:18:54;99899.81;;;7.91;50.87
73501;BME280;61721;42.206;25.320;2023-02-21T01:22:04;99899.69;;;7.24;52.49
73501;BME280;61721;42.206;25.320;2023-02-21T01:24:59;99873.00;;;7.59;51.57
73501;BME280;61721;42.206;25.320;2023-02-21T01:28:09;99880.88;;;7.83;51.04
73501;BME280;61721;42.206;25.320;2023-02-21T01:31:21;99871.44;;;7.90;50.53
73501;BME280;61721;42.206;25.320;2023-02-21T01:34:05;99871.94;;;7.84;51.39
73501;BME280;61721;42.206;25.320;2023-02-21T01:36:51;99866.81;;;8.25;50.27
73501;BME280;61721;42.206;25.320;2023-02-21T01:40:02;99860.66;;;8.13;50.77
73501;BME280;61721;42.206;25.320;2023-02-21T01:43:14;99853.75;;;7.89;50.67
73501;BME280;61721;42.206;25.320;2023-02-21T01:45:59;99864.06;;;7.60;52.59
73501;BME280;61721;42.206;25.320;2023-02-21T01:49:13;99852.22;;;7.97;51.64
73501;BME280;61721;42.206;25.320;2023-02-21T01:52:25;99853.16;;;7.63;51.80
73501;BME280;61721;42.206;25.320;2023-02-21T01:55:11;99847.72;;;7.76;51.70
73501;BME280;61721;42.206;25.320;2023-02-21T01:57:56;99834.41;;;7.87;51.84
73501;BME280;61721;42.206;25.320;2023-02-21T02:01:09;99840.91;;;7.94;51.64
73501;BME280;61721;42.206;25.320;2023-02-21T02:04:22;99838.72;;;8.21;51.06
73501;BME280;61721;42.206;25.320;2023-02-21T02:07:07;99846.72;;;8.10;51.28
73501;BME280;61721;42.206;25.320;2023-02-21T02:10:17;99831.81;;;8.73;49.16
73501;BME280;61721;42.206;25.320;2023-02-21T02:13:20;99827.66;;;8.48;50.09
73501;BME280;61721;42.206;25.320;2023-02-21T02:15:57;99829.22;;;8.50;50.40
73501;BME280;61721;42.206;25.320;2023-02-21T02:19:08;99820.75;;;8.23;51.11
73501;BME280;61721;42.206;25.320;2023-02-21T02:28:52;99827.97;;;7.89;50.50
73501;BME280;61721;42.206;25.320;2023-02-21T02:31:47;99819.88;;;7.91;50.79
73501;BME280;61721;42.206;25.320;2023-02-21T02:34:54;99828.09;;;7.77;51.42
73501;BME280;61721;42.206;25.320;2023-02-21T02:37:52;99819.06;;;8.33;50.15
73501;BME280;61721;42.206;25.320;2023-02-21T02:40:53;99826.00;;;8.13;50.57
73501;BME280;61721;42.206;25.320;2023-02-21T02:43:53;99823.47;;;8.12;50.65
73501;BME280;61721;42.206;25.320;2023-02-21T02:46:24;99818.38;;;8.09;51.22
73501;BME280;61721;42.206;25.320;2023-02-21T02:49:00;99810.88;;;8.68;49.52
73501;BME280;61721;42.206;25.320;2023-02-21T02:52:02;99811.28;;;8.52;49.17
73501;BME280;61721;42.206;25.320;2023-02-21T02:54:34;99803.34;;;8.30;49.06
73501;BME280;61721;42.206;25.320;2023-02-21T02:57:06;99805.31;;;7.95;50.10
73501;BME280;61721;42.206;25.320;2023-02-21T03:00:01;99798.75;;;8.10;49.64
73501;BME280;61721;42.206;25.320;2023-02-21T03:02:38;99793.03;;;8.26;49.47
73501;BME280;61721;42.206;25.320;2023-02-21T03:05:57;99782.25;;;8.16;49.89
73501;BME280;61721;42.206;25.320;2023-02-21T03:09:02;99782.00;;;8.19;49.66
73501;BME280;61721;42.206;25.320;2023-02-21T03:12:02;99776.00;;;8.06;50.27
73501;BME280;61721;42.206;25.320;2023-02-21T03:15:00;99772.66;;;8.36;49.64
73501;BME280;61721;42.206;25.320;2023-02-21T03:18:00;99779.59;;;8.16;49.38
73501;BME280;61721;42.206;25.320;2023-02-21T03:20:57;99768.69;;;8.08;49.20
73501;BME280;61721;42.206;25.320;2023-02-21T03:23:50;99765.53;;;8.14;48.96
73501;BME280;61721;42.206;25.320;2023-02-21T03:26:26;99772.81;;;8.55;47.77
73501;BME280;61721;42.206;25.320;2023-02-21T03:29:22;99771.09;;;8.22;47.95
73501;BME280;61721;42.206;25.320;2023-02-21T03:31:54;99772.25;;;7.97;48.54
73501;BME280;61721;42.206;25.320;2023-02-21T03:34:26;99779.22;;;8.21;48.17
73501;BME280;61721;42.206;25.320;2023-02-21T03:36:54;99783.00;;;8.61;46.81
73501;BME280;61721;42.206;25.320;2023-02-21T03:39:22;99785.38;;;8.96;46.05
73501;BME280;61721;42.206;25.320;2023-02-21T03:42:16;99785.56;;;9.04;45.59
73501;BME280;61721;42.206;25.320;2023-02-21T03:44:43;99792.63;;;9.35;44.88
73501;BME280;61721;42.206;25.320;2023-02-21T03:47:10;99799.44;;;8.98;46.01
73501;BME280;61721;42.206;25.320;2023-02-21T03:50:03;99803.53;;;9.02;46.40
73501;BME280;61721;42.206;25.320;2023-02-21T03:52:57;99797.38;;;9.53;45.25
73501;BME280;61721;42.206;25.320;2023-02-21T03:55:51;99798.69;;;9.37;45.73
73501;BME280;61721;42.206;25.320;2023-02-21T03:58:46;99802.97;;;9.19;46.11
73501;BME280;61721;42.206;25.320;2023-02-21T04:01:14;99799.09;;;9.12;46.38
73501;BME280;61721;42.206;25.320;2023-02-21T04:03:41;99799.03;;;9.44;45.59
73501;BME280;61721;42.206;25.320;2023-02-21T04:06:09;99786.31;;;9.36;45.62
73501;BME280;61721;42.206;25.320;2023-02-21T04:09:02;99793.25;;;9.18;46.18
73501;BME280;61721;42.206;25.320;2023-02-21T04:11:55;99785.81;;;9.01;46.49
73501;BME280;61721;42.206;25.320;2023-02-21T04:14:25;99791.94;;;9.33;45.61
73501;BME280;61721;42.206;25.320;2023-02-21T04:17:18;99794.19;;;8.76;46.96
73501;BME280;61721;42.206;25.320;2023-02-21T04:20:13;99789.97;;;8.41;48.25
73501;BME280;61721;42.206;25.320;2023-02-21T04:23:06;99797.16;;;8.18;48.61
73501;BME280;61721;42.206;25.320;2023-02-21T04:25:45;99792.38;;;8.44;47.89
73501;BME280;61721;42.206;25.320;2023-02-21T04:28:38;99797.75;;;8.33;47.95
73501;BME280;61721;42.206;25.320;2023-02-21T04:31:33;99791.97;;;8.17;49.21
73501;BME280;61721;42.206;25.320;2023-02-21T04:34:26;99797.91;;;8.32;48.90
73501;BME280;61721;42.206;25.320;2023-02-21T04:36:53;99802.13;;;8.66;47.77
73501;BME280;61721;42.206;25.320;2023-02-21T04:39:22;99796.06;;;8.32;48.55
73501;BME280;61721;42.206;25.320;2023-02-21T04:41:50;99801.56;;;8.63;48.23
73501;BME280;61721;42.206;25.320;2023-02-21T04:44:17;99800.81;;;8.61;47.88
73501;BME280;61721;42.206;25.320;2023-02-21T04:46:46;99808.94;;;9.12;47.13
73501;BME280;61721;42.206;25.320;2023-02-21T04:49:38;99808.16;;;9.72;46.02
73501;BME280;61721;42.206;25.320;2023-02-21T04:52:09;99803.19;;;8.95;47.47
73501;BME280;61721;42.206;25.320;2023-02-21T04:54:37;99808.38;;;9.08;47.10
73501;BME280;61721;42.206;25.320;2023-02-21T04:57:07;99805.81;;;9.07;47.27
73501;BME280;61721;42.206;25.320;2023-02-21T05:00:02;99804.22;;;9.45;46.00
73501;BME280;61721;42.206;25.320;2023-02-21T05:02:58;99810.03;;;9.30;46.58
73501;BME280;61721;42.206;25.320;2023-02-21T05:05:52;99812.97;;;9.27;46.76
73501;BME280;61721;42.206;25.320;2023-02-21T05:08:20;99815.25;;;9.11;46.55
73501;BME280;61721;42.206;25.320;2023-02-21T05:10:50;99810.53;;;9.14;46.62
73501;BME280;61721;42.206;25.320;2023-02-21T05:13:45;99815.75;;;8.84;47.72
73501;BME280;61721;42.206;25.320;2023-02-21T05:16:13;99811.53;;;8.81;48.14
73501;BME280;61721;42.206;25.320;2023-02-21T05:19:07;99806.00;;;8.94;47.93
73501;BME280;61721;42.206;25.320;2023-02-21T05:21:35;99814.28;;;9.12;47.74
73501;BME280;61721;42.206;25.320;2023-02-21T05:24:04;99809.00;;;9.21;47.83
73501;BME280;61721;42.206;25.320;2023-02-21T05:26:36;99815.47;;;9.19;47.83
73501;BME280;61721;42.206;25.320;2023-02-21T05:29:29;99811.31;;;9.35;47.50
73501;BME280;61721;42.206;25.320;2023-02-21T05:32:24;99802.22;;;9.38;47.57
73501;BME280;61721;42.206;25.320;2023-02-21T05:34:57;99809.06;;;9.31;47.72
73501;BME280;61721;42.206;25.320;2023-02-21T05:37:49;99798.06;;;9.24;47.48
73501;BME280;61721;42.206;25.320;2023-02-21T05:40:17;99801.28;;;9.49;47.05
73501;BME280;61721;42.206;25.320;2023-02-21T05:43:10;99805.28;;;9.33;47.15
73501;BME280;61721;42.206;25.320;2023-02-21T05:45:42;99793.88;;;9.31;47.12
73501;BME280;61721;42.206;25.320;2023-02-21T05:48:34;99804.50;;;9.42;47.10
73501;BME280;61721;42.206;25.320;2023-02-21T05:51:03;99805.97;;;9.56;46.85
73501;BME280;61721;42.206;25.320;2023-02-21T05:53:36;99806.69;;;9.58;46.93
73501;BME280;61721;42.206;25.320;2023-02-21T05:56:29;99816.44;;;9.38;47.20
73501;BME280;61721;42.206;25.320;2023-02-21T05:59:22;99823.47;;;9.70;47.06
73501;BME280;61721;42.206;25.320;2023-02-21T06:01:52;99827.53;;;9.64;46.93
73501;BME280;61721;42.206;25.320;2023-02-21T06:04:20;99824.88;;;10.04;45.63
73501;BME280;61721;42.206;25.320;2023-02-21T06:07:15;99823.03;;;9.65;46.32
73501;BME280;61721;42.206;25.320;2023-02-21T06:10:09;99821.91;;;9.67;46.63
73501;BME280;61721;42.206;25.320;2023-02-21T06:12:36;99822.22;;;10.04;46.06
73501;BME280;61721;42.206;25.320;2023-02-21T06:15:29;99825.97;;;9.41;47.51
73501;BME280;61721;42.206;25.320;2023-02-21T06:18:21;99821.88;;;9.88;46.18
73501;BME280;61721;42.206;25.320;2023-02-21T06:20:49;99813.88;;;9.98;46.71
73501;BME280;61721;42.206;25.320;2023-02-21T06:23:43;99820.81;;;9.70;46.77
73501;BME280;61721;42.206;25.320;2023-02-21T06:26:35;99826.16;;;10.10;45.40
73501;BME280;61721;42.206;25.320;2023-02-21T06:29:03;99820.34;;;9.95;46.24
73501;BME280;61721;42.206;25.320;2023-02-21T06:31:56;99822.31;;;9.93;46.52
73501;BME280;61721;42.206;25.320;2023-02-21T06:34:48;99822.84;;;9.87;46.53
73501;BME280;61721;42.206;25.320;2023-02-21T06:37:17;99826.47;;;9.56;47.41
73501;BME280;61721;42.206;25.320;2023-02-21T06:40:12;99826.59;;;9.44;47.59
73501;BME280;61721;42.206;25.320;2023-02-21T06:43:06;99835.28;;;9.05;49.11
73501;BME280;61721;42.206;25.320;2023-02-21T06:45:35;99838.19;;;9.34;48.58
73501;BME280;61721;42.206;25.320;2023-02-21T06:48:05;99834.94;;;9.91;47.14
73501;BME280;61721;42.206;25.320;2023-02-21T06:51:00;99827.69;;;10.03;46.64
73501;BME280;61721;42.206;25.320;2023-02-21T06:53:54;99817.84;;;10.72;45.03
73501;BME280;61721;42.206;25.320;2023-02-21T06:56:26;99820.66;;;11.19;43.71
73501;BME280;61721;42.206;25.320;2023-02-21T06:59:18;99827.44;;;11.03;43.27
73501;BME280;61721;42.206;25.320;2023-02-21T07:02:16;99815.31;;;12.12;41.46
73501;BME280;61721;42.206;25.320;2023-02-21T07:05:08;99817.59;;;12.34;40.53
73501;BME280;61721;42.206;25.320;2023-02-21T07:08:02;99806.97;;;12.95;39.50
73501;BME280;61721;42.206;25.320;2023-02-21T07:10:56;99813.63;;;13.09;38.86
73501;BME280;61721;42.206;25.320;2023-02-21T07:13:51;99799.81;;;13.47;38.59
73501;BME280;61721;42.206;25.320;2023-02-21T07:16:23;99802.56;;;13.12;38.59
73501;BME280;61721;42.206;25.320;2023-02-21T07:19:16;99800.88;;;12.75;39.75
73501;BME280;61721;42.206;25.320;2023-02-21T07:22:23;99798.13;;;13.03;38.94
73501;BME280;61721;42.206;25.320;2023-02-21T07:25:18;99800.28;;;13.68;38.29
73501;BME280;61721;42.206;25.320;2023-02-21T07:27:46;99805.78;;;13.33;38.56
73501;BME280;61721;42.206;25.320;2023-02-21T07:30:39;99793.75;;;13.19;39.23
73501;BME280;61721;42.206;25.320;2023-02-21T07:33:33;99798.63;;;12.35;41.18
73501;BME280;61721;42.206;25.320;2023-02-21T07:36:25;99801.53;;;12.69;41.33
73501;BME280;61721;42.206;25.320;2023-02-21T07:38:52;99809.47;;;12.43;42.00
73501;BME280;61721;42.206;25.320;2023-02-21T07:41:46;99803.50;;;12.67;41.69
73501;BME280;61721;42.206;25.320;2023-02-21T07:44:40;99792.88;;;13.01;41.74
73501;BME280;61721;42.206;25.320;2023-02-21T07:47:34;99788.59;;;12.91;41.15
73501;BME280;61721;42.206;25.320;2023-02-21T07:50:01;99772.72;;;12.97;40.43
73501;BME280;61721;42.206;25.320;2023-02-21T07:52:54;99776.63;;;13.03;40.41
73501;BME280;61721;42.206;25.320;2023-02-21T07:55:47;99772.47;;;12.91;40.48
73501;BME280;61721;42.206;25.320;2023-02-21T07:58:39;99767.56;;;13.04;40.82
73501;BME280;61721;42.206;25.320;2023-02-21T08:01:07;99773.72;;;13.14;41.00
73501;BME280;61721;42.206;25.320;2023-02-21T08:04:04;99769.72;;;13.18;40.73
73501;BME280;61721;42.206;25.320;2023-02-21T08:07:02;99766.69;;;13.47;40.04
73501;BME280;61721;42.206;25.320;2023-02-21T08:09:54;99762.63;;;13.68;39.38
73501;BME280;61721;42.206;25.320;2023-02-21T08:12:24;99767.97;;;14.02;39.30
73501;BME280;61721;42.206;25.320;2023-02-21T08:14:51;99769.97;;;13.92;38.86
73501;BME280;61721;42.206;25.320;2023-02-21T08:17:46;99753.91;;;14.83;37.20
73501;BME280;61721;42.206;25.320;2023-02-21T08:20:17;99768.19;;;14.99;36.67
73501;BME280;61721;42.206;25.320;2023-02-21T08:23:11;99763.66;;;14.76;37.57
73501;BME280;61721;42.206;25.320;2023-02-21T08:25:43;99757.56;;;15.14;37.12
73501;BME280;61721;42.206;25.320;2023-02-21T08:28:10;99744.88;;;15.55;36.67
73501;BME280;61721;42.206;25.320;2023-02-21T08:31:03;99736.31;;;15.44;36.58
73501;BME280;61721;42.206;25.320;2023-02-21T08:33:32;99741.34;;;15.63;35.63
73501;BME280;61721;42.206;25.320;2023-02-21T08:36:05;99742.34;;;16.09;35.45
73501;BME280;61721;42.206;25.320;2023-02-21T08:38:35;99745.06;;;16.32;35.22
73501;BME280;61721;42.206;25.320;2023-02-21T08:41:34;99740.72;;;16.53;33.94
73501;BME280;61721;42.206;25.320;2023-02-21T08:44:31;99743.25;;;16.55;34.07
73501;BME280;61721;42.206;25.320;2023-02-21T08:47:24;99727.78;;;17.61;33.01
73501;BME280;61721;42.206;25.320;2023-02-21T08:49:51;99728.25;;;17.13;33.69
73501;BME280;61721;42.206;25.320;2023-02-21T08:52:20;99737.16;;;17.36;32.67
73501;BME280;61721;42.206;25.320;2023-02-21T08:55:15;99725.78;;;17.40;32.86
73501;BME280;61721;42.206;25.320;2023-02-21T08:57:42;99722.34;;;17.90;31.44
73501;BME280;61721;42.206;25.320;2023-02-21T09:00:34;99721.66;;;18.18;31.39
73501;BME280;61721;42.206;25.320;2023-02-21T09:03:02;99723.69;;;18.52;31.03
73501;BME280;61721;42.206;25.320;2023-02-21T09:05:31;99714.06;;;17.77;31.37
73501;BME280;61721;42.206;25.320;2023-02-21T09:08:26;99709.50;;;18.14;30.66
73501;BME280;61721;42.206;25.320;2023-02-21T09:10:55;99699.72;;;17.98;30.70
73501;BME280;61721;42.206;25.320;2023-02-21T09:13:50;99708.91;;;18.69;29.74
73501;BME280;61721;42.206;25.320;2023-02-21T09:16:21;99701.06;;;18.38;30.08
73501;BME280;61721;42.206;25.320;2023-02-21T09:18:53;99711.81;;;17.95;30.47
73501;BME280;61721;42.206;25.320;2023-02-21T09:21:29;99692.72;;;18.18;30.89
73501;BME280;61721;42.206;25.320;2023-02-21T09:24:24;99694.75;;;18.73;29.92
73501;BME280;61721;42.206;25.320;2023-02-21T09:26:53;99684.97;;;19.28;29.53
73501;BME280;61721;42.206;25.320;2023-02-21T09:29:23;99680.81;;;19.32;28.91
73501;BME280;61721;42.206;25.320;2023-02-21T09:31:52;99679.75;;;19.61;29.18
73501;BME280;61721;42.206;25.320;2023-02-21T09:34:20;99669.22;;;19.17;29.71
73501;BME280;61721;42.206;25.320;2023-02-21T09:37:12;99668.59;;;18.87;29.74
73501;BME280;61721;42.206;25.320;2023-02-21T09:39:41;99666.53;;;19.92;28.86
73501;BME280;61721;42.206;25.320;2023-02-21T09:42:14;99663.84;;;19.99;28.34
73501;BME280;61721;42.206;25.320;2023-02-21T09:45:13;99649.16;;;19.87;28.76
73501;BME280;61721;42.206;25.320;2023-02-21T09:48:10;99650.22;;;20.60;27.55
73501;BME280;61721;42.206;25.320;2023-02-21T09:50:41;99645.63;;;20.67;27.26
73501;BME280;61721;42.206;25.320;2023-02-21T09:53:12;99641.41;;;21.37;27.12
73501;BME280;61721;42.206;25.320;2023-02-21T09:55:43;99636.66;;;21.70;25.95
73501;BME280;61721;42.206;25.320;2023-02-21T09:58:41;99636.19;;;20.89;26.82
73501;BME280;61721;42.206;25.320;2023-02-21T10:01:46;99634.31;;;20.57;27.23
73501;BME280;61721;42.206;25.320;2023-02-21T10:04:55;99630.09;;;20.34;27.34
73501;BME280;61721;42.206;25.320;2023-02-21T10:07:33;99620.91;;;20.88;26.92
73501;BME280;61721;42.206;25.320;2023-02-21T10:10:33;99629.19;;;20.14;26.65
73501;BME280;61721;42.206;25.320;2023-02-21T10:13:09;99612.94;;;21.32;26.44
73501;BME280;61721;42.206;25.320;2023-02-21T10:16:11;99605.44;;;20.69;26.36
73501;BME280;61721;42.206;25.320;2023-02-21T10:19:14;99606.00;;;21.88;25.67
73501;BME280;61721;42.206;25.320;2023-02-21T10:22:13;99607.38;;;21.59;24.98
73501;BME280;61721;42.206;25.320;2023-02-21T10:24:42;99595.78;;;21.25;24.87
73501;BME280;61721;42.206;25.320;2023-02-21T10:27:35;99593.72;;;20.88;25.29
73501;BME280;61721;42.206;25.320;2023-02-21T10:30:06;99583.69;;;21.66;24.05
73501;BME280;61721;42.206;25.320;2023-02-21T10:32:35;99581.59;;;23.12;23.56
73501;BME280;61721;42.206;25.320;2023-02-21T10:35:29;99566.09;;;22.38;23.64
73501;BME280;61721;42.206;25.320;2023-02-21T10:38:25;99563.56;;;21.16;24.69
73501;BME280;61721;42.206;25.320;2023-02-21T10:41:17;99562.56;;;22.31;23.80
73501;BME280;61721;42.206;25.320;2023-02-21T10:44:14;99541.09;;;22.41;23.19
73501;BME280;61721;42.206;25.320;2023-02-21T10:46:46;99528.63;;;22.27;23.81
73501;BME280;61721;42.206;25.320;2023-02-21T10:49:46;99554.59;;;21.60;23.67
73501;BME280;61721;42.206;25.320;2023-02-21T10:52:55;99534.28;;;22.99;22.76
73501;BME280;61721;42.206;25.320;2023-02-21T10:56:06;99534.47;;;22.80;23.23
73501;BME280;61721;42.206;25.320;2023-02-21T10:58:37;99531.00;;;23.27;22.45
73501;BME280;61721;42.206;25.320;2023-02-21T11:01:11;99518.81;;;23.30;21.58
73501;BME280;61721;42.206;25.320;2023-02-21T11:04:23;99515.59;;;22.53;22.27
73501;BME280;61721;42.206;25.320;2023-02-21T11:07:17;99508.13;;;22.67;21.88
73501;BME280;61721;42.206;25.320;2023-02-21T11:10:27;99505.53;;;22.97;21.97
73501;BME280;61721;42.206;25.320;2023-02-21T11:13:05;99499.38;;;23.01;21.88
73501;BME280;61721;42.206;25.320;2023-02-21T11:15:34;99491.44;;;22.57;21.96
73501;BME280;61721;42.206;25.320;2023-02-21T11:18:05;99491.63;;;22.37;22.15
73501;BME280;61721;42.206;25.320;2023-02-21T11:20:36;99476.97;;;23.48;21.46
73501;BME280;61721;42.206;25.320;2023-02-21T11:23:31;99472.91;;;24.10;20.56
73501;BME280;61721;42.206;25.320;2023-02-21T11:26:24;99462.47;;;23.65;20.53
73501;BME280;61721;42.206;25.320;2023-02-21T11:29:24;99456.44;;;24.51;20.44
73501;BME280;61721;42.206;25.320;2023-02-21T11:32:26;99440.72;;;24.58;19.73
73501;BME280;61721;42.206;25.320;2023-02-21T11:35:23;99451.22;;;25.65;19.29
73501;BME280;61721;42.206;25.320;2023-02-21T11:38:32;99449.03;;;24.98;18.84
73501;BME280;61721;42.206;25.320;2023-02-21T11:41:28;99436.50;;;24.09;19.22
73501;BME280;61721;42.206;25.320;2023-02-21T11:44:27;99443.22;;;24.25;19.32
73501;BME280;61721;42.206;25.320;2023-02-21T11:47:02;99430.84;;;23.69;19.92
73501;BME280;61721;42.206;25.320;2023-02-21T11:50:05;99420.63;;;24.29;19.87
73501;BME280;61721;42.206;25.320;2023-02-21T11:53:03;99420.75;;;23.70;19.79
73501;BME280;61721;42.206;25.320;2023-02-21T11:55:33;99410.41;;;23.30;20.41
73501;BME280;61721;42.206;25.320;2023-02-21T11:58:13;99409.88;;;24.98;18.89
73501;BME280;61721;42.206;25.320;2023-02-21T12:00:47;99408.09;;;24.10;19.70
73501;BME280;61721;42.206;25.320;2023-02-21T12:03:49;99395.22;;;24.81;19.37
73501;BME280;61721;42.206;25.320;2023-02-21T12:06:49;99405.13;;;24.93;18.59
73501;BME280;61721;42.206;25.320;2023-02-21T12:09:52;99396.69;;;24.48;19.15
73501;BME280;61721;42.206;25.320;2023-02-21T12:12:57;99383.09;;;24.77;18.75
73501;BME280;61721;42.206;25.320;2023-02-21T12:15:58;99377.25;;;24.85;18.65
73501;BME280;61721;42.206;25.320;2023-02-21T12:18:43;99368.22;;;25.69;18.06
73501;BME280;61721;42.206;25.320;2023-02-21T12:22:00;99359.94;;;24.56;18.36
73501;BME280;61721;42.206;25.320;2023-02-21T12:24:44;99356.81;;;24.87;18.39
73501;BME280;61721;42.206;25.320;2023-02-21T12:27:45;99354.41;;;24.91;17.82
73501;BME280;61721;42.206;25.320;2023-02-21T12:30:55;99354.56;;;24.73;18.73
73501;BME280;61721;42.206;25.320;2023-02-21T12:33:37;99342.56;;;25.30;17.97
73501;BME280;61721;42.206;25.320;2023-02-21T12:36:34;99345.69;;;26.77;16.09
73501;BME280;61721;42.206;25.320;2023-02-21T12:39:17;99347.38;;;27.00;16.39
73501;BME280;61721;42.206;25.320;2023-02-21T12:42:13;99331.78;;;26.41;16.57
73501;BME280;61721;42.206;25.320;2023-02-21T12:45:22;99336.81;;;26.49;16.40
73501;BME280;61721;42.206;25.320;2023-02-21T12:48:28;99347.00;;;26.31;16.80
73501;BME280;61721;42.206;25.320;2023-02-21T12:51:25;99327.75;;;26.10;16.70
73501;BME280;61721;42.206;25.320;2023-02-21T12:54:00;99334.66;;;26.94;15.96
73501;BME280;61721;42.206;25.320;2023-02-21T12:56:34;99335.81;;;26.98;15.80
73501;BME280;61721;42.206;25.320;2023-02-21T12:59:38;99330.94;;;26.62;16.06
73501;BME280;61721;42.206;25.320;2023-02-21T13:02:42;99331.34;;;27.46;15.39
73501;BME280;61721;42.206;25.320;2023-02-21T13:05:44;99329.47;;;26.76;16.04
73501;BME280;61721;42.206;25.320;2023-02-21T13:08:16;99327.41;;;26.23;16.44
73501;BME280;61721;42.206;25.320;2023-02-21T13:11:17;99318.53;;;26.37;16.44
73501;BME280;61721;42.206;25.320;2023-02-21T13:14:16;99318.75;;;26.96;16.30
73501;BME280;61721;42.206;25.320;2023-02-21T13:16:47;99316.66;;;27.57;15.62
73501;BME280;61721;42.206;25.320;2023-02-21T13:19:20;99307.44;;;28.62;15.23
73501;BME280;61721;42.206;25.320;2023-02-21T13:26:31;99313.81;;;25.94;16.51
73501;BME280;61721;42.206;25.320;2023-02-21T13:29:36;99300.88;;;27.84;15.34
73501;BME280;61721;42.206;25.320;2023-02-21T13:32:10;99299.22;;;26.49;15.89
73501;BME280;61721;42.206;25.320;2023-02-21T13:35:08;99298.41;;;26.10;16.52
73501;BME280;61721;42.206;25.320;2023-02-21T13:38:05;99293.16;;;28.13;15.28
73501;BME280;61721;42.206;25.320;2023-02-21T13:41:05;99290.25;;;26.15;16.22
73501;BME280;61721;42.206;25.320;2023-02-21T13:43:45;99291.38;;;27.60;15.58
73501;BME280;61721;42.206;25.320;2023-02-21T13:47:00;99282.88;;;25.99;16.59
73501;BME280;61721;42.206;25.320;2023-02-21T13:49:50;99270.75;;;25.95;17.11
73501;BME280;61721;42.206;25.320;2023-02-21T13:53:02;99276.56;;;25.82;16.74
73501;BME280;61721;42.206;25.320;2023-02-21T13:55:30;99288.31;;;25.61;16.51
73501;BME280;61721;42.206;25.320;2023-02-21T13:58:31;99281.06;;;25.54;16.79
73501;BME280;61721;42.206;25.320;2023-02-21T14:01:48;99276.88;;;26.02;16.97
73501;BME280;61721;42.206;25.320;2023-02-21T14:04:58;99275.28;;;25.68;16.89
73501;BME280;61721;42.206;25.320;2023-02-21T14:07:57;99278.34;;;26.70;16.32
73501;BME280;61721;42.206;25.320;2023-02-21T14:10:52;99274.78;;;26.09;16.42
73501;BME280;61721;42.206;25.320;2023-02-21T14:13:48;99276.88;;;26.41;16.26
73501;BME280;61721;42.206;25.320;2023-02-21T14:16:47;99275.97;;;26.57;16.54
73501;BME280;61721;42.206;25.320;2023-02-21T14:19:46;99273.75;;;29.78;14.04
73501;BME280;61721;42.206;25.320;2023-02-21T14:22:41;99271.50;;;28.99;14.63
73501;BME280;61721;42.206;25.320;2023-02-21T14:25:17;99267.56;;;28.13;15.06
73501;BME280;61721;42.206;25.320;2023-02-21T14:27:44;99266.88;;;29.70;14.00
73501;BME280;61721;42.206;25.320;2023-02-21T14:30:37;99267.16;;;29.49;14.58
73501;BME280;61721;42.206;25.320;2023-02-21T14:33:30;99275.69;;;29.37;14.40
73501;BME280;61721;42.206;25.320;2023-02-21T14:36:24;99258.81;;;30.04;14.48
73501;BME280;61721;42.206;25.320;2023-02-21T14:38:51;99259.84;;;30.98;13.98
73501;BME280;61721;42.206;25.320;2023-02-21T14:42:04;99267.41;;;29.72;14.38
73501;BME280;61721;42.206;25.320;2023-02-21T14:44:41;99276.94;;;28.74;14.90
73501;BME280;61721;42.206;25.320;2023-02-21T14:47:29;99273.63;;;27.46;16.06
73501;BME280;61721;42.206;25.320;2023-02-21T14:50:34;99276.44;;;28.30;16.03
73501;BME280;61721;42.206;25.320;2023-02-21T14:57:02;99265.75;;;26.96;17.28
73501;BME280;61721;42.206;25.320;2023-02-21T15:00:06;99277.25;;;25.72;18.31
73501;BME280;61721;42.206;25.320;2023-02-21T15:02:47;99272.34;;;24.67;19.03
73501;BME280;61721;42.206;25.320;2023-02-21T15:05:24;99269.16;;;23.72;20.14